createdAt,value
2024-05-09T00:00:03.660Z,60.36
2024-05-09T00:05:03.313Z,60.38
2024-05-09T00:10:03.166Z,60.39
2024-05-09T00:15:02.342Z,60.43
2024-05-09T00:20:03.251Z,60.44
2024-05-09T00:25:02.273Z,60.43
2024-05-09T00:30:04.024Z,60.47
2024-05-09T00:35:02.461Z,60.44
2024-05-09T00:40:02.818Z,60.49
2024-05-09T00:45:02.950Z,60.5
2024-05-09T00:50:02.466Z,60.5
2024-05-09T00:55:02.308Z,60.5
2024-05-09T01:00:03.637Z,60.52
2024-05-09T01:05:03.049Z,60.52
2024-05-09T01:10:02.473Z,60.53
2024-05-09T01:15:02.622Z,60.56
2024-05-09T01:20:05.748Z,60.53
2024-05-09T01:25:02.134Z,60.53
2024-05-09T01:30:05.358Z,60.61
2024-05-09T01:35:03.175Z,60.61
2024-05-09T01:40:02.473Z,60.63
2024-05-09T01:45:02.967Z,60.63
2024-05-09T01:50:02.250Z,60.67
2024-05-09T01:55:05.831Z,60.68
2024-05-09T02:00:03.645Z,60.7
2024-05-09T02:05:03.143Z,60.7
2024-05-09T02:10:03.756Z,60.71
2024-05-09T02:15:02.679Z,60.7
2024-05-09T02:20:02.941Z,60.74
2024-05-09T02:25:02.152Z,60.74
2024-05-09T02:30:02.396Z,60.76
2024-05-09T02:35:02.967Z,60.77
2024-05-09T02:40:03.317Z,60.8
2024-05-09T02:45:02.602Z,60.8
2024-05-09T02:50:03.097Z,60.81
2024-05-09T02:55:02.874Z,60.82
2024-05-09T03:00:03.598Z,60.82
2024-05-09T03:05:02.888Z,60.82
2024-05-09T03:10:02.188Z,60.86
2024-05-09T03:15:02.501Z,60.83
2024-05-09T03:20:04.125Z,60.87
2024-05-09T03:25:02.490Z,60.9
2024-05-09T03:30:03.995Z,60.89
2024-05-09T03:35:02.799Z,60.91
2024-05-09T03:40:03.073Z,60.91
2024-05-09T03:45:02.322Z,60.94
2024-05-09T03:50:04.390Z,60.94
2024-05-09T03:55:02.565Z,60.97
2024-05-09T04:00:03.013Z,60.96
2024-05-09T04:05:02.293Z,60.99
2024-05-09T04:10:04.013Z,60.97
2024-05-09T04:15:02.324Z,60.98
2024-05-09T04:20:02.612Z,61.0
2024-05-09T04:25:02.792Z,61.01
2024-05-09T04:30:03.709Z,60.99
2024-05-09T04:35:02.927Z,61.01
2024-05-09T04:40:02.308Z,61.06
2024-05-09T04:45:02.509Z,61.05
2024-05-09T04:50:02.765Z,61.05
2024-05-09T04:55:03.002Z,61.08
2024-05-09T05:00:03.002Z,61.07
2024-05-09T05:05:02.350Z,61.12
2024-05-09T05:10:04.525Z,61.15
2024-05-09T05:15:02.906Z,61.15
2024-05-09T05:20:02.410Z,61.16
2024-05-09T05:25:02.808Z,61.15
2024-05-09T05:30:03.559Z,61.14
2024-05-09T05:35:03.057Z,61.12
2024-05-09T05:40:02.502Z,61.09
2024-05-09T05:45:02.729Z,61.08
2024-05-09T05:50:03.035Z,61.08
2024-05-09T05:55:02.281Z,61.02
2024-05-09T06:00:04.081Z,60.97
2024-05-09T06:05:02.449Z,60.97
2024-05-09T06:10:05.270Z,60.87
2024-05-09T06:15:02.248Z,60.78
2024-05-09T06:20:02.529Z,60.73
2024-05-09T06:25:02.795Z,60.69
2024-05-09T06:30:03.012Z,60.61
2024-05-09T06:35:02.903Z,60.53
2024-05-09T06:40:04.143Z,60.47
2024-05-09T06:45:02.680Z,60.39
2024-05-09T06:50:03.723Z,60.35
2024-05-09T06:55:02.967Z,60.28
2024-05-09T07:00:02.256Z,60.24
2024-05-09T07:05:02.633Z,60.18
2024-05-09T07:10:03.931Z,60.12
2024-05-09T07:15:02.115Z,60.12
2024-05-09T07:20:02.346Z,60.03
2024-05-09T07:25:02.572Z,60.0
2024-05-09T07:30:05.402Z,59.96
2024-05-09T07:35:02.771Z,59.9
2024-05-09T07:40:04.257Z,59.88
2024-05-09T07:45:21.254Z,59.82
2024-05-09T07:51:54.748Z,59.82
2024-05-09T07:55:02.851Z,59.74
2024-05-09T08:00:02.498Z,59.7
2024-05-09T08:05:02.821Z,59.68
2024-05-09T08:10:04.266Z,59.62
2024-05-09T08:15:02.489Z,59.57
2024-05-09T08:20:05.061Z,59.53
2024-05-09T08:25:02.775Z,59.47
2024-05-09T08:30:03.219Z,59.46
2024-05-09T08:35:02.558Z,59.41
2024-05-09T08:40:03.968Z,59.37
2024-05-09T08:45:02.224Z,59.32
2024-05-09T08:50:02.564Z,59.29
2024-05-09T08:55:02.372Z,59.2
2024-05-09T09:00:03.629Z,59.17
2024-05-09T09:05:03.071Z,59.14
2024-05-09T09:10:02.646Z,59.11
2024-05-09T09:15:02.385Z,59.07
2024-05-09T09:20:02.751Z,59.02
2024-05-09T09:25:03.021Z,58.98
2024-05-09T09:30:02.270Z,58.92
2024-05-09T09:35:02.554Z,58.88
2024-05-09T09:40:03.231Z,58.82
2024-05-09T09:45:05.481Z,58.77
2024-05-09T09:50:05.468Z,58.73
2024-05-09T09:55:02.479Z,58.67
2024-05-09T10:00:05.609Z,58.64
2024-05-09T10:05:02.651Z,58.61
2024-05-09T10:10:03.355Z,58.55
2024-05-09T10:15:02.277Z,58.53
2024-05-09T10:20:04.087Z,58.41
2024-05-09T10:25:04.811Z,58.41
2024-05-09T10:30:06.750Z,58.27
2024-05-09T10:35:08.185Z,58.24
2024-05-09T10:40:02.704Z,58.2
2024-05-09T10:45:02.391Z,58.2
2024-05-09T10:50:02.532Z,58.09
2024-05-09T10:55:05.576Z,58.08
2024-05-09T11:00:03.802Z,58.01
2024-05-09T11:05:03.082Z,57.95
2024-05-09T11:10:02.369Z,57.89
2024-05-09T11:15:02.566Z,57.83
2024-05-09T11:20:06.225Z,57.77
2024-05-09T11:25:03.027Z,57.77
2024-05-09T11:30:03.080Z,57.78
2024-05-09T11:35:02.311Z,57.79
2024-05-09T11:40:03.414Z,57.82
2024-05-09T11:45:02.505Z,57.86
2024-05-09T11:50:04.320Z,57.88
2024-05-09T11:55:03.102Z,57.89
2024-05-09T12:00:03.128Z,57.84
2024-05-09T12:05:02.456Z,57.84
2024-05-09T12:10:04.509Z,57.81
2024-05-09T12:15:02.847Z,57.74
2024-05-09T12:20:04.316Z,57.66
2024-05-09T12:25:02.171Z,57.66
2024-05-09T12:30:02.529Z,57.42
2024-05-09T12:35:02.777Z,57.26
2024-05-09T12:40:03.866Z,57.12
2024-05-09T12:45:02.134Z,56.97
2024-05-09T12:50:06.473Z,56.86
2024-05-09T12:55:02.438Z,56.74
2024-05-09T13:00:03.073Z,56.58
2024-05-09T13:05:02.882Z,56.58
2024-05-09T13:10:02.381Z,56.32
2024-05-09T13:15:02.619Z,56.24
2024-05-09T13:20:04.289Z,56.15
2024-05-09T13:25:02.695Z,56.15
2024-05-09T13:30:03.034Z,56.01
2024-05-09T13:35:02.238Z,55.97
2024-05-09T13:40:03.347Z,55.94
2024-05-09T13:45:02.506Z,55.94
2024-05-09T13:50:03.749Z,55.93
2024-05-09T13:55:02.964Z,55.9
2024-05-09T14:00:03.636Z,55.88
2024-05-09T14:05:03.193Z,55.89
2024-05-09T14:10:03.092Z,55.84
2024-05-09T14:15:06.101Z,55.84
2024-05-09T14:20:02.414Z,55.84
2024-05-09T14:25:03.219Z,55.86
2024-05-09T14:30:04.218Z,55.89
2024-05-09T14:35:02.812Z,55.91
2024-05-09T14:40:05.102Z,55.95
2024-05-09T14:45:02.923Z,55.99
2024-05-09T14:50:05.354Z,56.05
2024-05-09T14:55:02.912Z,56.13
2024-05-09T15:00:05.100Z,56.16
2024-05-09T15:05:02.695Z,56.18
2024-05-09T15:10:04.703Z,56.22
2024-05-09T15:15:02.928Z,56.21
2024-05-09T15:20:02.276Z,56.24
2024-05-09T15:25:02.541Z,56.18
2024-05-09T15:30:04.405Z,56.18
2024-05-09T15:35:02.665Z,56.22
2024-05-09T15:40:04.184Z,56.22
2024-05-09T15:45:02.549Z,56.22
2024-05-09T15:50:03.085Z,56.22
2024-05-09T15:55:02.617Z,56.24
2024-05-09T16:00:04.546Z,56.25
2024-05-09T16:05:03.257Z,56.25
2024-05-09T16:10:02.624Z,56.26
2024-05-09T16:15:02.813Z,56.26
2024-05-09T16:20:06.819Z,56.29
2024-05-09T16:25:02.220Z,56.3
2024-05-09T16:30:04.042Z,56.32
2024-05-09T16:35:03.054Z,56.3
2024-05-09T16:40:02.640Z,56.35
2024-05-09T16:45:02.307Z,56.36
2024-05-09T16:50:03.729Z,56.37
2024-05-09T16:55:03.073Z,56.38
2024-05-09T17:00:02.449Z,56.44
2024-05-09T17:05:02.596Z,56.44
2024-05-09T17:10:03.092Z,56.5
2024-05-09T17:15:03.268Z,56.51
2024-05-09T17:20:03.678Z,56.51
2024-05-09T17:25:04.008Z,56.57
2024-05-09T17:30:03.504Z,56.65
2024-05-09T17:35:03.102Z,56.68
2024-05-09T17:40:02.653Z,56.72
2024-05-09T17:45:02.280Z,56.75
2024-05-09T17:50:02.624Z,56.75
2024-05-09T17:55:03.177Z,56.83
2024-05-09T18:00:04.034Z,56.86
2024-05-09T18:05:02.747Z,56.91
2024-05-09T18:10:02.280Z,56.96
2024-05-09T18:15:02.578Z,57.0
2024-05-09T18:20:02.975Z,57.02
2024-05-09T18:25:02.800Z,57.04
2024-05-09T18:30:03.183Z,57.11
2024-05-09T18:35:02.753Z,57.16
2024-05-09T18:40:03.388Z,57.19
2024-05-09T18:45:02.340Z,57.2
2024-05-09T18:50:02.555Z,57.26
2024-05-09T18:55:03.119Z,57.29
2024-05-09T19:00:02.296Z,57.34
2024-05-09T19:05:02.663Z,57.36
2024-05-09T19:10:03.392Z,57.41
2024-05-09T19:15:02.718Z,57.43
2024-05-09T19:20:04.513Z,57.46
2024-05-09T19:25:02.813Z,57.48
2024-05-09T19:35:02.316Z,57.57
2024-05-09T19:40:02.640Z,57.58
2024-05-09T19:45:03.091Z,57.65
2024-05-09T19:50:02.234Z,57.63
2024-05-09T19:55:03.631Z,57.7
2024-05-09T20:00:04.294Z,57.7
2024-05-09T20:05:03.113Z,57.75
2024-05-09T20:10:05.125Z,57.79
2024-05-09T20:15:02.429Z,57.77
2024-05-09T20:20:03.672Z,57.83
2024-05-09T20:25:03.224Z,57.88
2024-05-09T20:30:03.075Z,57.89
2024-05-09T20:35:02.395Z,57.93
2024-05-09T20:40:03.722Z,57.91
2024-05-09T20:45:03.035Z,57.96
2024-05-09T20:50:02.296Z,58.0
2024-05-09T20:55:02.482Z,58.04
2024-05-09T21:00:03.403Z,58.05
2024-05-09T21:05:04.225Z,58.07
2024-05-09T21:10:03.703Z,58.12
2024-05-09T21:15:02.686Z,58.13
2024-05-09T21:20:03.602Z,58.13
2024-05-09T21:25:02.940Z,58.15
2024-05-09T21:30:02.517Z,58.2
2024-05-09T21:35:02.760Z,58.21
2024-05-09T21:40:03.901Z,58.23
2024-05-09T21:45:02.297Z,58.24
2024-05-09T21:50:02.484Z,58.27
2024-05-09T21:55:02.779Z,58.26
2024-05-09T22:00:04.454Z,58.29
2024-05-09T22:05:03.132Z,58.29
2024-05-09T22:10:02.639Z,58.35
2024-05-09T22:15:02.323Z,58.35
2024-05-09T22:20:02.716Z,58.38
2024-05-09T22:25:02.611Z,58.4
2024-05-09T22:30:04.059Z,58.39
2024-05-09T22:35:03.073Z,58.42
2024-05-09T22:40:04.737Z,58.42
2024-05-09T22:45:02.580Z,58.45
2024-05-09T22:50:02.929Z,58.47
2024-05-09T22:55:02.134Z,58.48
2024-05-09T23:00:02.547Z,58.45
2024-05-09T23:05:02.593Z,58.45
2024-05-09T23:10:04.361Z,58.51
2024-05-09T23:15:02.663Z,58.53
2024-05-09T23:20:05.149Z,58.54
2024-05-09T23:25:02.481Z,58.54
2024-05-09T23:30:04.562Z,58.6
2024-05-09T23:35:03.199Z,58.59
2024-05-09T23:40:03.868Z,58.62
2024-05-09T23:45:02.965Z,58.62
2024-05-09T23:50:05.014Z,58.62
2024-05-09T23:55:02.914Z,58.64
